Time;durP1;ratioP1;P1;durP2;ratioP2;P2;SDS_P1;SDS_P2;PMS_P1;PMS_P2;Temp;Humidity;BMP_temperature;BMP_pressure;BME280_temperature;BME280_humidity;BME280_pressure;Samples;Min_cycle;Max_cycle;Signal;HPM_P1;HPM_P2
2022/12/01 00:01:34;;;;;;;15.17;8.33;;;6.10;99.90;;;;;;5069073;28;20203;-61
2022/12/01 00:04:01;;;;;;;13.60;7.70;;;6.10;99.90;;;;;;5048377;28;20590;-60
2022/12/01 00:06:28;;;;;;;10.97;6.40;;;6.10;99.90;;;;;;5068767;28;20277;-59
2022/12/01 00:11:40;;;;;;;11.53;6.00;;;6.20;99.90;;;;;;5068973;28;20404;-61
2022/12/01 00:14:07;;;;;;;13.60;7.40;;;6.70;99.90;;;;;;5069532;28;20213;-61
2022/12/01 00:16:35;;;;;;;17.83;9.40;;;6.20;99.90;;;;;;5069331;28;20200;-61
2022/12/01 00:19:03;;;;;;;21.07;10.10;;;6.20;99.90;;;;;;5068800;28;20213;-61
2022/12/01 00:21:30;;;;;;;14.30;7.97;;;6.20;99.90;;;;;;5066446;28;20192;-61
2022/12/01 00:23:58;;;;;;;18.03;9.23;;;6.20;99.90;;;;;;5069070;28;20216;-61
2022/12/01 00:26:27;;;;;;;17.27;9.03;;;6.20;99.90;;;;;;5069017;28;20212;-61
2022/12/01 00:28:56;;;;;;;14.90;8.60;;;6.20;99.90;;;;;;5071776;28;20191;-61
2022/12/01 00:31:24;;;;;;;18.27;9.20;;;6.20;99.90;;;;;;5072640;28;20192;-60
2022/12/01 00:33:51;;;;;;;13.17;7.87;;;6.20;99.90;;;;;;5072492;28;20254;-61
2022/12/01 00:36:18;;;;;;;14.13;8.20;;;6.20;99.90;;;;;;5072744;28;20283;-61
2022/12/01 00:38:46;;;;;;;13.57;7.73;;;6.20;99.90;;;;;;5073079;28;20221;-60
2022/12/01 00:41:13;;;;;;;13.10;8.07;;;6.20;99.90;;;;;;5054181;28;20202;-60
2022/12/01 00:43:40;;;;;;;14.30;8.30;;;6.30;99.90;;;;;;5070751;28;20185;-61
2022/12/01 00:46:08;;;;;;;15.40;9.00;;;6.20;99.90;;;;;;5054570;28;20212;-61
2022/12/01 00:48:35;;;;;;;15.77;8.73;;;6.20;99.90;;;;;;5072253;28;20211;-60
2022/12/01 00:51:03;;;;;;;17.90;9.20;;;6.20;99.90;;;;;;5070208;28;20274;-60
2022/12/01 00:53:30;;;;;;;12.17;7.90;;;6.20;99.90;;;;;;5055259;28;20221;-60
2022/12/01 00:55:57;;;;;;;9.67;6.20;;;6.60;99.90;;;;;;5082236;28;20617;-60
2022/12/01 00:58:25;;;;;;;12.27;7.17;;;6.20;99.90;;;;;;5070011;28;20220;-61
2022/12/01 01:00:57;;;;;;;15.43;8.53;;;6.20;99.90;;;;;;5072524;28;20208;-61
2022/12/01 01:03:26;;;;;;;12.97;7.47;;;6.20;99.90;;;;;;5069293;28;20216;-61
2022/12/01 01:05:53;;;;;;;13.30;7.23;;;6.10;99.90;;;;;;5053880;28;20231;-61
2022/12/01 01:08:20;;;;;;;17.10;9.00;;;6.10;99.90;;;;;;5083413;28;20196;-61
2022/12/01 01:10:48;;;;;;;11.70;7.30;;;6.20;99.90;;;;;;5072976;28;20219;-61
2022/12/01 01:13:15;;;;;;;12.30;7.17;;;6.20;99.90;;;;;;5072029;28;20259;-60
2022/12/01 01:15:42;;;;;;;12.80;7.90;;;6.20;99.90;;;;;;5072056;28;20291;-60
2022/12/01 01:18:11;;;;;;;14.07;8.07;;;6.20;99.90;;;;;;5071421;28;20192;-61
2022/12/01 01:20:39;;;;;;;10.57;6.60;;;6.20;99.90;;;;;;5071789;28;20371;-61
2022/12/01 01:23:06;;;;;;;11.63;7.37;;;6.20;99.90;;;;;;5071216;28;20203;-61
2022/12/01 01:25:33;;;;;;;12.93;7.20;;;6.20;99.90;;;;;;5072408;28;20296;-61
2022/12/01 01:28:00;;;;;;;11.97;7.57;;;6.20;99.90;;;;;;5052997;28;20209;-61
2022/12/01 01:30:28;;;;;;;13.37;7.80;;;6.10;99.90;;;;;;5072358;28;20244;-60
2022/12/01 01:32:55;;;;;;;11.40;7.57;;;6.10;99.90;;;;;;5070793;28;20269;-60
2022/12/01 01:35:22;;;;;;;13.50;7.60;;;6.10;99.90;;;;;;5071703;28;20197;-61
2022/12/01 01:37:50;;;;;;;13.37;6.33;;;6.10;99.90;;;;;;5069576;28;20193;-62
2022/12/01 01:40:18;;;;;;;7.80;5.43;;;6.10;99.90;;;;;;5070781;28;20812;-61
2022/12/01 01:42:45;;;;;;;8.47;5.47;;;6.10;99.90;;;;;;5070919;28;20204;-61
2022/12/01 01:45:21;;;;;;;11.13;6.53;;;6.20;99.90;;;;;;5053667;28;20203;-61
2022/12/01 01:47:50;;;;;;;11.13;7.20;;;6.20;99.90;;;;;;5052264;28;20206;-61
2022/12/01 01:50:20;;;;;;;12.73;7.40;;;6.20;99.90;;;;;;5068804;28;20632;-59
2022/12/01 01:52:55;;;;;;;10.93;7.00;;;6.20;99.90;;;;;;5070708;28;20185;-60
2022/12/01 01:55:23;;;;;;;12.30;6.63;;;6.20;99.90;;;;;;5063652;28;20677;-61
2022/12/01 01:57:50;;;;;;;11.97;7.20;;;6.20;99.90;;;;;;5070319;28;20189;-60
2022/12/01 02:00:20;;;;;;;11.30;6.90;;;6.20;99.90;;;;;;5071310;28;20198;-61
2022/12/01 02:02:50;;;;;;;10.07;6.70;;;6.20;99.90;;;;;;5069872;28;20591;-61
2022/12/01 02:05:20;;;;;;;8.43;5.63;;;6.30;99.90;;;;;;5071042;28;20187;-60
2022/12/01 02:07:48;;;;;;;10.27;7.00;;;6.20;99.90;;;;;;5070571;28;20197;-61
2022/12/01 02:10:21;;;;;;;12.80;7.30;;;6.30;99.90;;;;;;5071572;28;20240;-61
2022/12/01 02:13:03;;;;;;;12.30;7.93;;;6.20;99.90;;;;;;5070336;28;20190;-61
2022/12/01 02:15:37;;;;;;;12.90;8.00;;;6.20;99.90;;;;;;5070166;28;20290;-61
2022/12/01 02:18:21;;;;;;;8.77;5.67;;;6.20;99.90;;;;;;5067795;28;20269;-60
2022/12/01 02:21:18;;;;;;;13.17;7.50;;;6.20;99.90;;;;;;5069342;28;20275;-60
2022/12/01 02:24:35;;;;;;;9.90;5.80;;;6.20;99.90;;;;;;5069216;28;20200;-60
2022/12/01 02:27:08;;;;;;;8.67;5.03;;;6.30;99.90;;;;;;5050822;28;20201;-62
2022/12/01 02:29:58;;;;;;;7.57;5.43;;;6.30;99.90;;;;;;5068568;28;20187;-60
2022/12/01 02:32:33;;;;;;;6.50;4.67;;;6.30;99.90;;;;;;5048420;28;20299;-60
2022/12/01 02:35:07;;;;;;;5.20;4.60;;;6.30;99.90;;;;;;5068658;28;20226;-60
2022/12/01 02:37:38;;;;;;;8.90;6.03;;;6.30;99.90;;;;;;5069727;28;20216;-60
2022/12/01 02:40:14;;;;;;;7.97;5.93;;;6.40;99.90;;;;;;5070899;28;20268;-60
2022/12/01 02:42:52;;;;;;;6.47;5.10;;;6.30;99.90;;;;;;5067849;28;20705;-60
2022/12/01 02:45:28;;;;;;;8.73;6.03;;;6.30;99.90;;;;;;5071065;28;20653;-60
2022/12/01 02:47:59;;;;;;;7.33;5.50;;;6.20;99.80;;;;;;5076415;28;20204;-60
2022/12/01 02:50:30;;;;;;;5.30;4.67;;;6.30;99.90;;;;;;5069550;28;20214;-60
2022/12/01 02:52:57;;;;;;;6.23;4.83;;;6.30;99.90;;;;;;5069587;28;20197;-60
2022/12/01 02:55:24;;;;;;;8.67;5.57;;;6.40;99.90;;;;;;5080019;28;20196;-60
2022/12/01 02:57:51;;;;;;;7.83;5.43;;;6.40;99.90;;;;;;5069040;28;20652;-59
2022/12/01 03:00:18;;;;;;;7.37;5.10;;;6.30;99.90;;;;;;5070174;28;20196;-61
2022/12/01 03:03:01;;;;;;;7.30;5.10;;;6.30;99.90;;;;;;5066835;28;20247;-61
2022/12/01 03:05:40;;;;;;;10.00;6.10;;;6.30;99.90;;;;;;5068494;28;20206;-61
2022/12/01 03:08:14;;;;;;;8.50;6.17;;;6.30;99.80;;;;;;5068620;28;20667;-62
2022/12/01 03:10:48;;;;;;;8.17;6.07;;;6.30;99.90;;;;;;5070119;28;21757;-62
2022/12/01 03:13:26;;;;;;;8.30;5.87;;;6.30;99.80;;;;;;5051909;28;20195;-61
2022/12/01 03:16:00;;;;;;;10.03;6.03;;;6.30;99.80;;;;;;5068929;28;20714;-60
2022/12/01 03:18:34;;;;;;;10.97;7.00;;;6.30;99.80;;;;;;5067598;28;20199;-61
2022/12/01 03:21:07;;;;;;;10.60;6.57;;;6.30;99.80;;;;;;5069801;28;20235;-60
2022/12/01 03:23:39;;;;;;;7.93;5.80;;;6.30;99.90;;;;;;5069348;28;20271;-60
2022/12/01 03:26:09;;;;;;;8.63;5.80;;;6.40;99.90;;;;;;5069706;28;20674;-61
2022/12/01 03:28:40;;;;;;;10.23;6.20;;;6.30;99.90;;;;;;5068998;28;20294;-61
2022/12/01 03:31:11;;;;;;;10.27;6.70;;;6.30;99.90;;;;;;5069854;28;20239;-61
2022/12/01 03:33:46;;;;;;;7.90;5.40;;;6.30;99.90;;;;;;5066666;28;20221;-61
2022/12/01 03:36:19;;;;;;;10.67;6.90;;;6.30;99.90;;;;;;5069114;28;20188;-61
2022/12/01 03:38:51;;;;;;;10.07;6.97;;;6.30;99.90;;;;;;5065705;28;20195;-61
2022/12/01 03:41:22;;;;;;;12.27;7.47;;;6.20;99.90;;;;;;5067049;28;20199;-61
2022/12/01 03:43:53;;;;;;;9.07;6.13;;;6.20;99.90;;;;;;5069496;28;20291;-61
2022/12/01 03:46:25;;;;;;;11.97;7.33;;;6.20;99.90;;;;;;5076727;28;20224;-61
2022/12/01 03:48:54;;;;;;;9.57;6.17;;;6.10;99.90;;;;;;5068818;28;20190;-61
2022/12/01 03:51:28;;;;;;;8.63;5.90;;;6.10;99.90;;;;;;5075956;28;20219;-60
2022/12/01 03:53:59;;;;;;;9.13;6.67;;;6.10;99.90;;;;;;5072901;28;20208;-61
2022/12/01 03:56:30;;;;;;;14.57;8.70;;;6.10;99.90;;;;;;5074877;28;20224;-60
2022/12/01 03:58:59;;;;;;;12.27;7.27;;;6.10;99.60;;;;;;5068706;28;20204;-60
2022/12/01 04:01:31;;;;;;;9.30;6.50;;;6.10;99.60;;;;;;5069321;28;20199;-60
2022/12/01 04:04:05;;;;;;;7.87;5.83;;;6.10;99.60;;;;;;5069937;28;20672;-60
2022/12/01 04:06:32;;;;;;;9.00;6.23;;;6.10;99.60;;;;;;5072858;28;20222;-60
2022/12/01 04:08:59;;;;;;;10.67;6.73;;;6.10;99.50;;;;;;5073030;28;20649;-60
2022/12/01 04:14:10;;;;;;;10.13;7.00;;;6.00;99.30;;;;;;5073469;28;20226;-61
2022/12/01 04:16:37;;;;;;;10.13;6.57;;;6.00;99.40;;;;;;5073108;28;20290;-61
2022/12/01 04:19:05;;;;;;;10.33;6.97;;;6.00;99.50;;;;;;5072702;28;20198;-61
2022/12/01 04:21:32;;;;;;;11.60;7.13;;;6.00;99.50;;;;;;5072760;28;20273;-61
2022/12/01 04:24:02;;;;;;;10.67;7.13;;;6.10;99.60;;;;;;5072665;28;20267;-61
2022/12/01 04:26:31;;;;;;;9.93;6.73;;;6.10;99.60;;;;;;5070560;28;20286;-61
2022/12/01 04:28:58;;;;;;;9.37;5.90;;;6.10;99.60;;;;;;5071596;28;20210;-60
2022/12/01 04:31:25;;;;;;;9.37;6.03;;;6.10;99.70;;;;;;5073156;28;20221;-61
2022/12/01 04:33:53;;;;;;;7.77;5.43;;;6.10;99.60;;;;;;5052269;28;20254;-62
2022/12/01 04:36:22;;;;;;;6.57;4.80;;;6.20;99.70;;;;;;5072652;28;20198;-61
2022/12/01 04:38:48;;;;;;;6.77;4.80;;;6.20;99.60;;;;;;5072896;28;20199;-61
2022/12/01 04:41:16;;;;;;;11.97;5.93;;;6.30;99.60;;;;;;5054300;28;20201;-61
2022/12/01 04:43:43;;;;;;;6.23;5.00;;;6.20;99.50;;;;;;5073166;28;20272;-61
2022/12/01 04:46:11;;;;;;;5.07;4.20;;;6.20;99.50;;;;;;5072845;28;20194;-61
2022/12/01 04:48:38;;;;;;;7.13;4.90;;;6.20;99.50;;;;;;5074635;28;20205;-61
2022/12/01 04:51:07;;;;;;;7.33;5.10;;;6.30;99.50;;;;;;5072312;28;20197;-60
2022/12/01 04:53:36;;;;;;;7.03;5.40;;;6.30;99.50;;;;;;5087423;28;20278;-60
2022/12/01 04:56:04;;;;;;;8.67;5.67;;;6.20;99.40;;;;;;5072747;28;20516;-60
2022/12/01 04:58:32;;;;;;;9.90;6.17;;;6.20;99.40;;;;;;5072513;28;20188;-61
2022/12/01 05:01:02;;;;;;;5.70;4.47;;;6.20;99.30;;;;;;5072529;28;20223;-60
2022/12/01 05:03:29;;;;;;;6.63;4.60;;;6.20;99.20;;;;;;5072001;28;20215;-60
2022/12/01 05:06:02;;;;;;;6.33;4.23;;;6.20;99.20;;;;;;5071585;28;20201;-60
2022/12/01 05:08:29;;;;;;;6.33;4.80;;;6.20;99.20;;;;;;5072208;28;20226;-61
2022/12/01 05:10:57;;;;;;;6.90;5.23;;;6.20;99.20;;;;;;5053727;28;20563;-60
2022/12/01 05:13:24;;;;;;;6.23;5.10;;;6.20;99.20;;;;;;5070671;28;20180;-60
2022/12/01 05:15:51;;;;;;;6.87;4.90;;;6.20;99.10;;;;;;5076758;28;20622;-60
2022/12/01 05:18:18;;;;;;;9.03;5.77;;;6.20;99.10;;;;;;5077937;28;20279;-61
2022/12/01 05:20:56;;;;;;;9.63;6.37;;;6.20;99.10;;;;;;5069652;28;20199;-61
2022/12/01 05:23:23;;;;;;;8.17;6.07;;;6.20;99.10;;;;;;5072068;28;20692;-62
2022/12/01 05:25:50;;;;;;;8.87;5.97;;;6.20;99.10;;;;;;5070393;28;20200;-61
2022/12/01 05:28:18;;;;;;;9.00;6.40;;;6.20;99.10;;;;;;5069816;28;20264;-61
2022/12/01 05:30:45;;;;;;;9.13;6.83;;;6.20;99.10;;;;;;5071783;28;20187;-61
2022/12/01 05:33:12;;;;;;;8.97;6.30;;;6.10;99.10;;;;;;5071606;28;20270;-60
2022/12/01 05:35:40;;;;;;;7.13;5.50;;;6.10;99.10;;;;;;5069434;28;20288;-60
2022/12/01 05:38:07;;;;;;;7.60;5.30;;;6.10;99.20;;;;;;5069836;28;20202;-60
2022/12/01 05:40:34;;;;;;;9.27;6.27;;;6.10;99.20;;;;;;5071943;28;20246;-60
2022/12/01 05:43:01;;;;;;;8.10;6.10;;;6.20;99.30;;;;;;5071837;28;20196;-60
2022/12/01 05:45:30;;;;;;;10.27;6.77;;;6.20;99.60;;;;;;5070557;28;20531;-60
2022/12/01 05:47:57;;;;;;;8.53;5.87;;;6.20;99.20;;;;;;5071232;28;20190;-60
2022/12/01 05:50:24;;;;;;;13.33;7.40;;;6.20;99.30;;;;;;5071398;28;20510;-61
2022/12/01 05:52:51;;;;;;;9.97;6.73;;;6.20;99.20;;;;;;5070894;28;20286;-61
2022/12/01 05:55:18;;;;;;;12.00;7.57;;;6.20;99.30;;;;;;5079720;28;20318;-61
2022/12/01 05:57:46;;;;;;;13.00;7.73;;;6.20;99.30;;;;;;5070936;28;20282;-60
2022/12/01 06:00:14;;;;;;;22.07;9.33;;;6.20;99.30;;;;;;5071320;28;20272;-61
2022/12/01 06:02:43;;;;;;;17.30;8.60;;;6.10;99.10;;;;;;5069883;28;20197;-61
2022/12/01 06:05:10;;;;;;;20.13;8.33;;;6.10;99.20;;;;;;5070951;28;20266;-60
2022/12/01 06:07:39;;;;;;;20.03;7.87;;;6.10;99.20;;;;;;5070161;28;20362;-60
2022/12/01 06:10:08;;;;;;;20.20;8.30;;;6.10;99.20;;;;;;5069943;28;20240;-60
2022/12/01 06:12:35;;;;;;;28.20;10.50;;;6.10;99.20;;;;;;5071031;28;20558;-61
2022/12/01 06:15:02;;;;;;;20.10;8.97;;;6.20;99.60;;;;;;5053344;28;20311;-60
2022/12/01 06:17:29;;;;;;;15.50;8.10;;;6.20;99.30;;;;;;5070285;28;20550;-60
2022/12/01 06:19:58;;;;;;;11.90;7.07;;;6.20;99.20;;;;;;5071012;28;20206;-60
2022/12/01 06:22:25;;;;;;;11.13;6.23;;;6.20;99.10;;;;;;5070292;28;20196;-60
2022/12/01 06:24:51;;;;;;;10.47;7.03;;;6.20;99.00;;;;;;5071741;28;20195;-60
2022/12/01 06:27:18;;;;;;;9.50;6.27;;;6.20;98.90;;;;;;5082541;28;20563;-60
2022/12/01 06:29:45;;;;;;;8.27;5.50;;;6.10;98.90;;;;;;5071613;28;20272;-61
2022/12/01 06:32:12;;;;;;;7.40;4.73;;;6.10;99.30;;;;;;5069792;28;20285;-60
2022/12/01 06:34:39;;;;;;;5.47;4.27;;;6.10;99.00;;;;;;5070472;28;20688;-61
2022/12/01 06:37:07;;;;;;;8.10;5.67;;;6.20;99.10;;;;;;5069908;28;20193;-61
2022/12/01 06:39:34;;;;;;;7.93;5.40;;;6.20;99.10;;;;;;5071025;28;20195;-60
2022/12/01 06:42:02;;;;;;;7.50;5.30;;;6.20;99.10;;;;;;5069652;28;20229;-61
2022/12/01 06:44:28;;;;;;;8.77;5.70;;;6.20;99.10;;;;;;5070741;28;20287;-61
2022/12/01 06:46:57;;;;;;;9.00;5.60;;;6.20;99.10;;;;;;5069529;28;20199;-61
2022/12/01 06:49:23;;;;;;;10.90;6.93;;;6.20;99.10;;;;;;5080466;28;20200;-61
2022/12/01 06:51:50;;;;;;;8.47;6.10;;;6.20;99.00;;;;;;5070034;28;20206;-62
2022/12/01 06:54:20;;;;;;;10.13;5.90;;;6.20;99.10;;;;;;5077335;28;20226;-62
2022/12/01 06:56:47;;;;;;;7.67;5.60;;;6.20;99.10;;;;;;5069536;28;20201;-62
2022/12/01 06:59:14;;;;;;;10.40;5.80;;;6.20;99.10;;;;;;5069745;28;20279;-62
2022/12/01 07:01:41;;;;;;;10.90;6.03;;;6.30;99.10;;;;;;5050910;28;20520;-60
2022/12/01 07:04:08;;;;;;;18.60;9.43;;;6.30;99.00;;;;;;5067980;28;20313;-60
2022/12/01 07:06:35;;;;;;;15.10;9.13;;;6.30;98.90;;;;;;5064562;28;20741;-61
2022/12/01 07:09:02;;;;;;;14.07;7.80;;;6.20;98.80;;;;;;5053703;28;20783;-61
2022/12/01 07:11:31;;;;;;;10.43;6.80;;;6.20;98.90;;;;;;5065148;28;20283;-60
2022/12/01 07:13:58;;;;;;;8.90;5.60;;;6.20;98.90;;;;;;5066214;28;20669;-60
2022/12/01 07:16:25;;;;;;;7.47;5.07;;;6.20;98.90;;;;;;5072439;28;20994;-60
2022/12/01 07:18:52;;;;;;;9.80;6.13;;;6.20;98.90;;;;;;5067207;28;20660;-60
2022/12/01 07:21:19;;;;;;;9.17;6.10;;;6.20;98.90;;;;;;5067054;28;20212;-60
2022/12/01 07:23:46;;;;;;;10.13;6.73;;;6.20;98.90;;;;;;5067437;28;20199;-60
2022/12/01 07:26:14;;;;;;;18.33;9.37;;;6.20;98.80;;;;;;5048203;28;20679;-60
2022/12/01 07:28:44;;;;;;;17.93;9.83;;;6.20;98.70;;;;;;5066166;28;20206;-61
2022/12/01 07:31:13;;;;;;;14.93;8.07;;;6.20;98.70;;;;;;5065837;28;20267;-60
2022/12/01 07:33:40;;;;;;;11.47;7.20;;;6.20;98.70;;;;;;5066651;28;20204;-60
2022/12/01 07:36:08;;;;;;;11.03;6.47;;;6.10;98.70;;;;;;5048605;28;20219;-60
2022/12/01 07:38:36;;;;;;;10.17;6.23;;;6.10;98.80;;;;;;5065831;28;20200;-60
2022/12/01 07:41:04;;;;;;;12.30;7.67;;;6.20;98.90;;;;;;5069657;28;20225;-60
2022/12/01 07:43:31;;;;;;;9.50;5.60;;;6.20;98.80;;;;;;5050089;28;20205;-60
2022/12/01 07:46:05;;;;;;;7.47;5.10;;;6.20;98.80;;;;;;5067352;28;20199;-60
2022/12/01 07:48:32;;;;;;;7.43;4.90;;;6.20;98.80;;;;;;5065954;28;20196;-61
2022/12/01 07:50:59;;;;;;;5.60;4.47;;;6.20;98.80;;;;;;5066666;28;20689;-61
2022/12/01 07:53:26;;;;;;;4.33;3.93;;;6.30;99.10;;;;;;5049269;28;20645;-61
2022/12/01 07:55:53;;;;;;;6.53;4.30;;;6.30;98.80;;;;;;5050067;28;20220;-61
2022/12/01 07:58:20;;;;;;;5.23;4.20;;;6.30;98.80;;;;;;5066220;28;20579;-61
2022/12/01 08:00:46;;;;;;;6.07;4.37;;;6.20;98.70;;;;;;5070127;28;20200;-61
2022/12/01 08:03:15;;;;;;;6.97;4.63;;;6.30;98.80;;;;;;5065479;28;20604;-61
2022/12/01 08:05:42;;;;;;;6.50;4.53;;;6.30;98.70;;;;;;5067260;28;20266;-61
2022/12/01 08:08:09;;;;;;;9.63;6.37;;;6.30;98.60;;;;;;5066445;28;20200;-61
2022/12/01 08:10:36;;;;;;;10.27;6.70;;;6.30;98.60;;;;;;5062089;28;20197;-61
2022/12/01 08:13:03;;;;;;;10.10;6.30;;;6.30;98.50;;;;;;5065929;28;20251;-61
2022/12/01 08:15:30;;;;;;;10.70;6.77;;;6.30;98.40;;;;;;5067299;28;20219;-61
2022/12/01 08:18:01;;;;;;;8.63;5.87;;;6.30;98.50;;;;;;5065589;28;20215;-60
2022/12/01 08:20:29;;;;;;;15.17;7.57;;;6.30;98.50;;;;;;5066467;28;20218;-60
2022/12/01 08:22:59;;;;;;;13.27;7.50;;;6.30;98.40;;;;;;5066100;28;20181;-60
2022/12/01 08:25:26;;;;;;;9.70;6.33;;;6.30;98.40;;;;;;5048696;28;20295;-60
2022/12/01 08:27:54;;;;;;;8.17;5.57;;;6.30;98.40;;;;;;5063968;28;20227;-61
2022/12/01 08:30:21;;;;;;;7.00;4.70;;;6.40;98.40;;;;;;5048466;28;20245;-61
2022/12/01 08:32:48;;;;;;;6.47;4.70;;;6.40;98.40;;;;;;5065980;28;20196;-61
2022/12/01 08:35:15;;;;;;;11.83;6.50;;;6.40;98.40;;;;;;5066449;28;20223;-60
2022/12/01 08:37:43;;;;;;;11.00;6.93;;;6.40;98.20;;;;;;5066222;28;20193;-60
2022/12/01 08:40:11;;;;;;;9.07;5.77;;;6.40;98.00;;;;;;5066703;28;20193;-60
2022/12/01 08:42:38;;;;;;;8.00;5.50;;;6.30;98.10;;;;;;5065841;28;20246;-60
2022/12/01 08:45:06;;;;;;;10.93;6.87;;;6.40;98.10;;;;;;5067074;28;20305;-60
2022/12/01 08:47:33;;;;;;;9.03;5.90;;;6.30;97.90;;;;;;5065555;28;20677;-60
2022/12/01 08:50:00;;;;;;;9.83;6.13;;;6.30;98.00;;;;;;5067375;28;20198;-61
2022/12/01 08:52:31;;;;;;;8.43;5.70;;;6.30;98.10;;;;;;5071896;28;20223;-60
2022/12/01 08:55:00;;;;;;;8.87;5.50;;;6.30;98.10;;;;;;5072521;28;20205;-60
2022/12/01 08:57:29;;;;;;;11.53;6.53;;;6.40;98.10;;;;;;5054528;28;20207;-60
2022/12/01 08:59:56;;;;;;;8.77;5.67;;;6.40;98.10;;;;;;5069785;28;20261;-61
2022/12/01 09:02:23;;;;;;;9.03;5.70;;;6.40;98.10;;;;;;5052518;28;20303;-60
2022/12/01 09:04:51;;;;;;;7.63;5.07;;;6.40;98.10;;;;;;5051498;28;20335;-60
2022/12/01 09:07:19;;;;;;;7.87;5.60;;;6.40;98.00;;;;;;5069533;28;20224;-60
2022/12/01 09:09:47;;;;;;;7.43;5.10;;;6.40;97.90;;;;;;5074083;28;20675;-61
2022/12/01 09:12:15;;;;;;;7.90;5.23;;;6.40;98.00;;;;;;5069335;28;20209;-60
2022/12/01 09:14:46;;;;;;;7.63;5.23;;;6.40;98.00;;;;;;5070498;28;20563;-60
2022/12/01 09:17:14;;;;;;;5.77;4.57;;;6.50;98.00;;;;;;5069555;28;20204;-60
2022/12/01 09:19:41;;;;;;;6.77;4.70;;;6.50;98.00;;;;;;5069045;28;20188;-60
2022/12/01 09:22:08;;;;;;;8.40;6.00;;;6.50;98.00;;;;;;5069644;28;20534;-61
2022/12/01 09:24:35;;;;;;;9.20;5.97;;;6.50;97.90;;;;;;5072145;28;21219;-61
2022/12/01 09:27:03;;;;;;;8.50;5.83;;;6.50;97.90;;;;;;5069126;28;20200;-61
2022/12/01 09:29:31;;;;;;;8.33;5.83;;;6.50;97.90;;;;;;5065024;28;20546;-60
2022/12/01 09:31:59;;;;;;;9.90;6.27;;;6.50;97.90;;;;;;5068420;28;20190;-60
2022/12/01 09:34:28;;;;;;;9.50;6.63;;;6.50;97.90;;;;;;5069235;28;20318;-60
2022/12/01 09:36:56;;;;;;;8.63;6.37;;;6.50;97.80;;;;;;5072381;28;20281;-60
2022/12/01 09:39:24;;;;;;;9.87;6.50;;;6.50;97.80;;;;;;5068915;28;20202;-60
2022/12/01 09:41:55;;;;;;;6.70;4.87;;;6.40;97.80;;;;;;5049483;28;20201;-60
2022/12/01 09:44:38;;;;;;;6.73;4.60;;;6.40;97.80;;;;;;5049971;28;20311;-61
2022/12/01 09:47:17;;;;;;;10.40;6.00;;;6.40;97.70;;;;;;5066756;28;20615;-61
2022/12/01 09:49:53;;;;;;;10.07;6.40;;;6.40;97.70;;;;;;5051084;28;20197;-60
2022/12/01 09:52:21;;;;;;;9.93;6.10;;;6.40;97.70;;;;;;5043671;28;20277;-60
2022/12/01 09:54:49;;;;;;;9.47;5.60;;;6.40;97.70;;;;;;5072510;28;20262;-61
2022/12/01 09:57:24;;;;;;;10.40;5.73;;;6.50;97.80;;;;;;5068016;28;20242;-61
2022/12/01 09:59:54;;;;;;;7.83;4.90;;;6.50;97.70;;;;;;5069390;28;20274;-61
2022/12/01 10:02:29;;;;;;;10.77;5.43;;;6.50;97.70;;;;;;5065675;28;20294;-61
2022/12/01 10:04:59;;;;;;;8.40;5.60;;;6.50;97.60;;;;;;5067863;28;20275;-61
2022/12/01 10:07:29;;;;;;;9.20;5.87;;;6.50;97.50;;;;;;5066914;28;20197;-61
2022/12/01 10:09:59;;;;;;;8.37;5.17;;;6.40;97.50;;;;;;5067387;28;20570;-61
2022/12/01 10:12:31;;;;;;;7.47;5.10;;;6.50;97.60;;;;;;5066843;28;20228;-61
2022/12/01 10:15:13;;;;;;;6.17;4.50;;;6.50;97.60;;;;;;5050810;28;20203;-61
2022/12/01 10:17:49;;;;;;;7.77;5.40;;;6.50;97.50;;;;;;5067560;28;20268;-60
2022/12/01 10:20:21;;;;;;;9.13;5.03;;;6.50;97.40;;;;;;5068319;28;20195;-60
2022/12/01 10:23:33;;;;;;;10.23;6.20;;;6.50;97.50;;;;;;5065969;28;20270;-60
2022/12/01 10:26:07;;;;;;;8.93;5.60;;;6.50;97.40;;;;;;5006172;28;20716;-60
2022/12/01 10:28:54;;;;;;;7.40;5.20;;;6.50;97.40;;;;;;5037735;28;20204;-60
2022/12/01 10:31:31;;;;;;;7.10;4.97;;;6.50;97.40;;;;;;5067493;28;20658;-61
2022/12/01 10:34:04;;;;;;;6.60;5.20;;;6.50;97.40;;;;;;5067270;28;20512;-60
2022/12/01 10:36:34;;;;;;;6.70;5.00;;;6.50;97.20;;;;;;5066009;28;20208;-60
2022/12/01 10:39:02;;;;;;;9.07;4.83;;;6.50;97.30;;;;;;5046833;28;20229;-61
2022/12/01 10:41:32;;;;;;;7.10;5.10;;;6.60;97.30;;;;;;5067342;28;20227;-60
2022/12/01 10:44:00;;;;;;;5.67;4.27;;;6.60;97.30;;;;;;5068072;28;20203;-61
2022/12/01 10:46:35;;;;;;;4.00;3.60;;;6.60;97.30;;;;;;5049868;28;20289;-60
2022/12/01 10:49:09;;;;;;;4.23;3.50;;;6.50;97.20;;;;;;5048238;28;20199;-60
2022/12/01 10:51:48;;;;;;;7.57;4.63;;;6.60;97.30;;;;;;5051240;28;20200;-60
2022/12/01 10:54:15;;;;;;;5.23;4.10;;;6.60;97.20;;;;;;5074610;28;20274;-60
2022/12/01 10:56:46;;;;;;;7.17;4.13;;;6.70;97.20;;;;;;5073064;28;20699;-61
2022/12/01 10:59:25;;;;;;;5.63;4.43;;;6.70;97.10;;;;;;5067215;28;20197;-60
2022/12/01 11:01:54;;;;;;;5.27;4.30;;;6.70;97.00;;;;;;5066918;28;20690;-60
2022/12/01 11:04:44;;;;;;;9.80;5.07;;;6.60;97.00;;;;;;5066859;28;20315;-61
2022/12/01 11:07:33;;;;;;;7.50;5.30;;;6.60;96.90;;;;;;5066387;28;20201;-61
2022/12/01 11:10:13;;;;;;;8.20;5.40;;;6.60;96.80;;;;;;5072721;28;20197;-61
2022/12/01 11:12:41;;;;;;;7.20;4.87;;;6.60;96.80;;;;;;5065422;28;20211;-61
2022/12/01 11:15:17;;;;;;;5.70;4.20;;;6.60;96.80;;;;;;5068366;28;20205;-61
2022/12/01 11:17:46;;;;;;;4.57;3.40;;;6.60;96.90;;;;;;5065267;28;20564;-61
2022/12/01 11:20:27;;;;;;;4.57;3.60;;;6.60;96.90;;;;;;5066271;28;20368;-61
2022/12/01 11:23:15;;;;;;;4.67;3.90;;;6.60;96.90;;;;;;5066682;28;20193;-61
2022/12/01 11:25:43;;;;;;;4.00;3.53;;;6.60;96.70;;;;;;5065416;28;20267;-61
2022/12/01 11:28:20;;;;;;;5.07;3.53;;;6.60;96.70;;;;;;5065301;28;20196;-61
2022/12/01 11:30:47;;;;;;;6.03;4.17;;;6.60;96.80;;;;;;5065950;28;20872;-61
2022/12/01 11:33:16;;;;;;;27.43;12.27;;;6.60;96.80;;;;;;5065247;28;20289;-61
2022/12/01 11:35:48;;;;;;;29.60;14.70;;;6.60;96.50;;;;;;5048172;28;20345;-61
2022/12/01 11:38:23;;;;;;;17.17;8.47;;;6.60;96.20;;;;;;5066780;28;20555;-61
2022/12/01 11:40:53;;;;;;;11.10;6.30;;;6.60;96.20;;;;;;5067418;28;20257;-61
2022/12/01 11:43:24;;;;;;;9.20;5.07;;;6.60;96.20;;;;;;5067032;28;20192;-61
2022/12/01 11:45:53;;;;;;;6.40;4.53;;;6.60;96.20;;;;;;5066571;28;20188;-61
2022/12/01 11:48:25;;;;;;;4.20;3.30;;;6.60;96.50;;;;;;5065933;28;20717;-61
2022/12/01 11:51:06;;;;;;;5.60;3.20;;;6.60;96.20;;;;;;5065548;28;20687;-61
2022/12/01 11:53:35;;;;;;;7.93;4.70;;;6.70;96.30;;;;;;5067683;28;20247;-61
2022/12/01 11:56:31;;;;;;;5.33;3.93;;;6.70;96.20;;;;;;5064541;28;20215;-61
2022/12/01 11:59:04;;;;;;;5.33;3.60;;;6.60;96.20;;;;;;5064890;28;20209;-61
2022/12/01 12:01:45;;;;;;;10.03;4.63;;;6.70;96.10;;;;;;5066812;28;20271;-61
2022/12/01 12:04:26;;;;;;;4.30;3.20;;;6.70;96.20;;;;;;5065486;28;20240;-61
2022/12/01 12:07:03;;;;;;;7.30;3.30;;;6.60;95.80;;;;;;5065312;28;20214;-61
2022/12/01 12:10:07;;;;;;;3.30;2.83;;;6.70;95.60;;;;;;5065855;28;20195;-61
2022/12/01 12:12:50;;;;;;;4.33;3.07;;;6.60;95.60;;;;;;5056358;28;20631;-61
2022/12/01 12:15:26;;;;;;;3.33;3.03;;;6.60;95.60;;;;;;5066615;28;20276;-61
2022/12/01 12:18:09;;;;;;;4.37;3.37;;;6.60;95.60;;;;;;5047149;28;20799;-61
2022/12/01 12:20:51;;;;;;;3.30;3.00;;;6.70;95.70;;;;;;5067410;28;20191;-60
2022/12/01 12:24:09;;;;;;;3.47;2.83;;;6.60;95.40;;;;;;5066526;28;20220;-61
2022/12/01 12:26:47;;;;;;;3.03;2.73;;;6.60;95.40;;;;;;4990699;28;20242;-61
2022/12/01 12:29:32;;;;;;;3.13;2.50;;;6.60;95.50;;;;;;5066974;28;20228;-61
2022/12/01 12:32:13;;;;;;;4.20;2.63;;;6.70;95.50;;;;;;5070111;28;20280;-61
2022/12/01 12:34:50;;;;;;;8.87;4.20;;;6.70;95.50;;;;;;5050328;28;20571;-61
2022/12/01 12:37:26;;;;;;;3.77;3.30;;;6.70;95.40;;;;;;5067540;28;20224;-61
2022/12/01 12:40:09;;;;;;;2.87;2.57;;;6.60;95.30;;;;;;5070739;28;20272;-61
2022/12/01 12:42:47;;;;;;;4.27;3.13;;;6.70;95.40;;;;;;5069017;28;20224;-61
2022/12/01 12:45:21;;;;;;;2.50;2.30;;;6.70;95.30;;;;;;5069799;28;20275;-61
2022/12/01 12:48:07;;;;;;;4.33;2.80;;;6.70;95.70;;;;;;5069143;28;20189;-61
2022/12/01 12:50:43;;;;;;;3.70;2.50;;;6.70;95.30;;;;;;5069865;28;20355;-61
2022/12/01 12:53:17;;;;;;;2.50;2.30;;;6.70;95.20;;;;;;5069498;28;20192;-61
2022/12/01 12:55:49;;;;;;;1.90;1.80;;;6.70;95.20;;;;;;5071743;28;20199;-61
2022/12/01 12:58:22;;;;;;;2.40;2.20;;;6.70;95.10;;;;;;5067254;28;20219;-61
2022/12/01 13:00:54;;;;;;;2.60;2.23;;;6.70;95.10;;;;;;5069565;28;20216;-60
2022/12/01 13:03:31;;;;;;;1.57;1.47;;;6.70;95.30;;;;;;5066120;28;20281;-61
2022/12/01 13:06:02;;;;;;;1.73;1.63;;;6.80;95.40;;;;;;5067920;28;20296;-61
2022/12/01 13:08:36;;;;;;;1.50;1.40;;;6.80;95.30;;;;;;5068219;28;20205;-61
2022/12/01 13:11:10;;;;;;;1.40;1.30;;;6.80;95.30;;;;;;5068799;28;20202;-60
2022/12/01 13:13:46;;;;;;;1.40;1.30;;;6.90;95.40;;;;;;5068361;28;20624;-60
2022/12/01 13:16:18;;;;;;;1.93;1.40;;;6.90;95.30;;;;;;5068597;28;20300;-60
2022/12/01 13:18:50;;;;;;;2.00;1.87;;;6.90;95.40;;;;;;5068059;28;20652;-60